CheckWX is a tool to help pilots better visualize weather data.  It is not intended as a substitute for an official pre-flight weather briefing.

06:46:33 UTC

EGPI METAR
Islay Airport
Port Ellen, United Kingdom
Current

57 mins ago

EGPI 220550Z AUTO 26026KT 9999 FEW030/// 06/03 Q0998 RERA
Observed
Feb-22 @ 05:50 UTC
Wind
  • 260° at 26 KTS
Visibility
10,000+ meters
Flight Rules
VFR
Cloud Levels
  • Few at 3,000' AGL
Temperature
C / 43°F
Dewpoint
C / 37°F
Humidity
81%
Altimeter
29.47" Hg
Pressure
997.92 hPa
Previous

1 hour ago

EGPI 220520Z AUTO 28030G43KT 9999 -RA FEW011/// 04/03 Q0997
Observed
Feb-22 @ 05:20 UTC
Wind
  • 280° at 30 KTS
  • Gusting to 43 KTS
Visibility
10,000+ meters
Flight Rules
VFR
Conditions
Light Rain
Cloud Levels
  • Few at 1,100' AGL
Temperature
C / 39°F
Dewpoint
C / 37°F
Humidity
93%
Altimeter
29.44" Hg
Pressure
996.92 hPa
Previous

2 hours ago

EGPI 220450Z AUTO 24026KT 200V270 8000 FEW024/// 05/03 Q0997 RERA
Observed
Feb-22 @ 04:50 UTC
Wind
  • 240° at 26 KTS
Visibility
8,000 meters
Flight Rules
MVFR
Cloud Levels
  • Few at 2,400' AGL
Temperature
C / 41°F
Dewpoint
C / 37°F
Humidity
87%
Altimeter
29.44" Hg
Pressure
996.92 hPa